sensor_id;sensor_type;location;lat;lon;timestamp;P1;durP1;ratioP1;P2;durP2;ratioP2
68923;SDS011;55961;52.156;20.942;2024-03-17T00:00:22;10.95;;;1.58;;
68923;SDS011;55961;52.156;20.942;2024-03-17T00:03:08;9.02;;;1.33;;
68923;SDS011;55961;52.156;20.942;2024-03-17T00:05:35;8.75;;;1.52;;
68923;SDS011;55961;52.156;20.942;2024-03-17T00:08:01;7.70;;;1.30;;
68923;SDS011;55961;52.156;20.942;2024-03-17T00:10:33;13.20;;;1.55;;
68923;SDS011;55961;52.156;20.942;2024-03-17T00:12:59;8.13;;;1.38;;
68923;SDS011;55961;52.156;20.942;2024-03-17T00:15:26;9.85;;;1.33;;
68923;SDS011;55961;52.156;20.942;2024-03-17T00:17:53;9.93;;;1.20;;
68923;SDS011;55961;52.156;20.942;2024-03-17T00:20:20;8.37;;;1.23;;
68923;SDS011;55961;52.156;20.942;2024-03-17T00:23:06;6.35;;;1.60;;
68923;SDS011;55961;52.156;20.942;2024-03-17T00:25:45;7.45;;;1.00;;
68923;SDS011;55961;52.156;20.942;2024-03-17T00:28:11;6.70;;;0.85;;
68923;SDS011;55961;52.156;20.942;2024-03-17T00:30:37;7.53;;;0.70;;
68923;SDS011;55961;52.156;20.942;2024-03-17T00:33:03;6.35;;;0.90;;
68923;SDS011;55961;52.156;20.942;2024-03-17T00:35:29;8.55;;;1.33;;
68923;SDS011;55961;52.156;20.942;2024-03-17T00:37:57;12.30;;;1.40;;
68923;SDS011;55961;52.156;20.942;2024-03-17T00:40:24;9.27;;;0.87;;
68923;SDS011;55961;52.156;20.942;2024-03-17T00:42:50;7.57;;;1.38;;
68923;SDS011;55961;52.156;20.942;2024-03-17T00:45:16;10.55;;;0.50;;
68923;SDS011;55961;52.156;20.942;2024-03-17T00:47:42;7.20;;;0.73;;
68923;SDS011;55961;52.156;20.942;2024-03-17T00:50:09;7.57;;;0.90;;
68923;SDS011;55961;52.156;20.942;2024-03-17T00:52:36;4.55;;;0.60;;
68923;SDS011;55961;52.156;20.942;2024-03-17T00:55:03;10.68;;;0.85;;
68923;SDS011;55961;52.156;20.942;2024-03-17T00:57:29;7.38;;;0.75;;
68923;SDS011;55961;52.156;20.942;2024-03-17T00:59:55;11.23;;;1.10;;
68923;SDS011;55961;52.156;20.942;2024-03-17T01:02:21;7.20;;;1.00;;
68923;SDS011;55961;52.156;20.942;2024-03-17T01:04:47;11.02;;;1.15;;
68923;SDS011;55961;52.156;20.942;2024-03-17T01:07:13;8.60;;;0.90;;
68923;SDS011;55961;52.156;20.942;2024-03-17T01:09:39;5.63;;;0.70;;
68923;SDS011;55961;52.156;20.942;2024-03-17T01:12:05;8.43;;;0.73;;
68923;SDS011;55961;52.156;20.942;2024-03-17T01:14:31;8.25;;;1.33;;
68923;SDS011;55961;52.156;20.942;2024-03-17T01:16:58;11.05;;;1.20;;
68923;SDS011;55961;52.156;20.942;2024-03-17T01:19:25;5.13;;;0.57;;
68923;SDS011;55961;52.156;20.942;2024-03-17T01:21:52;17.15;;;1.50;;
68923;SDS011;55961;52.156;20.942;2024-03-17T01:24:18;8.60;;;0.57;;
68923;SDS011;55961;52.156;20.942;2024-03-17T01:26:44;8.35;;;1.02;;
68923;SDS011;55961;52.156;20.942;2024-03-17T01:29:11;11.40;;;1.00;;
68923;SDS011;55961;52.156;20.942;2024-03-17T01:31:36;9.95;;;1.00;;
68923;SDS011;55961;52.156;20.942;2024-03-17T01:34:02;10.43;;;0.90;;
68923;SDS011;55961;52.156;20.942;2024-03-17T01:36:28;8.10;;;1.00;;
68923;SDS011;55961;52.156;20.942;2024-03-17T01:38:54;11.20;;;0.65;;
68923;SDS011;55961;52.156;20.942;2024-03-17T01:41:20;6.57;;;0.80;;
68923;SDS011;55961;52.156;20.942;2024-03-17T01:43:46;6.22;;;0.63;;
68923;SDS011;55961;52.156;20.942;2024-03-17T01:46:13;8.03;;;0.70;;
68923;SDS011;55961;52.156;20.942;2024-03-17T01:48:42;8.40;;;0.63;;
68923;SDS011;55961;52.156;20.942;2024-03-17T01:51:08;9.32;;;1.17;;
68923;SDS011;55961;52.156;20.942;2024-03-17T01:53:39;7.00;;;0.80;;
68923;SDS011;55961;52.156;20.942;2024-03-17T01:56:07;16.50;;;1.10;;
68923;SDS011;55961;52.156;20.942;2024-03-17T01:58:36;8.20;;;0.93;;
68923;SDS011;55961;52.156;20.942;2024-03-17T02:01:02;10.23;;;0.70;;
68923;SDS011;55961;52.156;20.942;2024-03-17T02:03:29;9.30;;;1.00;;
68923;SDS011;55961;52.156;20.942;2024-03-17T02:05:56;7.73;;;1.03;;
68923;SDS011;55961;52.156;20.942;2024-03-17T02:08:23;8.85;;;0.60;;
68923;SDS011;55961;52.156;20.942;2024-03-17T02:10:56;6.20;;;0.85;;
68923;SDS011;55961;52.156;20.942;2024-03-17T02:13:22;7.47;;;0.63;;
68923;SDS011;55961;52.156;20.942;2024-03-17T02:15:48;8.63;;;0.85;;
68923;SDS011;55961;52.156;20.942;2024-03-17T02:18:14;6.13;;;0.73;;
68923;SDS011;55961;52.156;20.942;2024-03-17T02:20:40;6.38;;;0.70;;
68923;SDS011;55961;52.156;20.942;2024-03-17T02:23:28;9.63;;;0.85;;
68923;SDS011;55961;52.156;20.942;2024-03-17T02:25:54;9.45;;;0.82;;
68923;SDS011;55961;52.156;20.942;2024-03-17T02:28:20;14.60;;;1.20;;
68923;SDS011;55961;52.156;20.942;2024-03-17T02:30:46;10.23;;;1.05;;
68923;SDS011;55961;52.156;20.942;2024-03-17T02:33:12;9.77;;;1.00;;
68923;SDS011;55961;52.156;20.942;2024-03-17T02:35:37;8.70;;;0.70;;
68923;SDS011;55961;52.156;20.942;2024-03-17T02:38:03;7.90;;;1.10;;
68923;SDS011;55961;52.156;20.942;2024-03-17T02:40:29;9.45;;;1.38;;
68923;SDS011;55961;52.156;20.942;2024-03-17T02:42:55;8.80;;;2.10;;
68923;SDS011;55961;52.156;20.942;2024-03-17T02:45:21;10.20;;;1.27;;
68923;SDS011;55961;52.156;20.942;2024-03-17T02:47:47;6.38;;;0.90;;
68923;SDS011;55961;52.156;20.942;2024-03-17T02:50:14;8.75;;;1.50;;
68923;SDS011;55961;52.156;20.942;2024-03-17T02:52:40;9.43;;;0.97;;
68923;SDS011;55961;52.156;20.942;2024-03-17T02:55:06;12.70;;;0.85;;
68923;SDS011;55961;52.156;20.942;2024-03-17T02:57:32;11.30;;;1.30;;
68923;SDS011;55961;52.156;20.942;2024-03-17T02:59:58;8.77;;;0.80;;
68923;SDS011;55961;52.156;20.942;2024-03-17T03:02:24;9.68;;;1.50;;
68923;SDS011;55961;52.156;20.942;2024-03-17T03:04:50;11.57;;;1.55;;
68923;SDS011;55961;52.156;20.942;2024-03-17T03:07:17;8.35;;;0.88;;
68923;SDS011;55961;52.156;20.942;2024-03-17T03:09:44;10.90;;;1.33;;
68923;SDS011;55961;52.156;20.942;2024-03-17T03:12:15;9.27;;;1.05;;
68923;SDS011;55961;52.156;20.942;2024-03-17T03:15:11;7.70;;;0.82;;
68923;SDS011;55961;52.156;20.942;2024-03-17T03:17:45;11.88;;;1.02;;
68923;SDS011;55961;52.156;20.942;2024-03-17T03:20:12;7.00;;;0.95;;
68923;SDS011;55961;52.156;20.942;2024-03-17T03:22:45;10.13;;;1.10;;
68923;SDS011;55961;52.156;20.942;2024-03-17T03:25:11;9.77;;;1.33;;
68923;SDS011;55961;52.156;20.942;2024-03-17T03:27:37;13.02;;;2.03;;
68923;SDS011;55961;52.156;20.942;2024-03-17T03:30:04;11.83;;;1.50;;
68923;SDS011;55961;52.156;20.942;2024-03-17T03:32:32;11.52;;;1.45;;
68923;SDS011;55961;52.156;20.942;2024-03-17T03:34:58;11.10;;;1.73;;
68923;SDS011;55961;52.156;20.942;2024-03-17T03:37:24;8.50;;;1.25;;
68923;SDS011;55961;52.156;20.942;2024-03-17T03:39:50;9.93;;;1.10;;
68923;SDS011;55961;52.156;20.942;2024-03-17T03:42:16;7.13;;;1.15;;
68923;SDS011;55961;52.156;20.942;2024-03-17T03:44:44;11.40;;;1.80;;
68923;SDS011;55961;52.156;20.942;2024-03-17T03:47:14;8.70;;;1.60;;
68923;SDS011;55961;52.156;20.942;2024-03-17T03:49:40;9.18;;;1.42;;
68923;SDS011;55961;52.156;20.942;2024-03-17T03:52:06;13.00;;;1.60;;
68923;SDS011;55961;52.156;20.942;2024-03-17T03:54:33;15.98;;;1.70;;
68923;SDS011;55961;52.156;20.942;2024-03-17T03:56:59;10.83;;;2.13;;
68923;SDS011;55961;52.156;20.942;2024-03-17T03:59:25;12.90;;;1.60;;
68923;SDS011;55961;52.156;20.942;2024-03-17T04:01:51;13.55;;;1.95;;
68923;SDS011;55961;52.156;20.942;2024-03-17T04:04:17;11.17;;;1.90;;
68923;SDS011;55961;52.156;20.942;2024-03-17T04:06:43;9.98;;;1.42;;
68923;SDS011;55961;52.156;20.942;2024-03-17T04:09:09;8.70;;;2.22;;
68923;SDS011;55961;52.156;20.942;2024-03-17T04:11:36;10.90;;;1.42;;
68923;SDS011;55961;52.156;20.942;2024-03-17T04:14:05;12.70;;;1.30;;
68923;SDS011;55961;52.156;20.942;2024-03-17T04:16:31;9.57;;;1.42;;
68923;SDS011;55961;52.156;20.942;2024-03-17T04:18:57;11.27;;;1.92;;
68923;SDS011;55961;52.156;20.942;2024-03-17T04:21:23;13.90;;;2.00;;
68923;SDS011;55961;52.156;20.942;2024-03-17T04:23:49;6.75;;;1.58;;
68923;SDS011;55961;52.156;20.942;2024-03-17T04:26:15;10.38;;;1.40;;
68923;SDS011;55961;52.156;20.942;2024-03-17T04:28:40;9.67;;;1.83;;
68923;SDS011;55961;52.156;20.942;2024-03-17T04:31:06;10.00;;;2.00;;
68923;SDS011;55961;52.156;20.942;2024-03-17T04:33:33;13.65;;;1.40;;
68923;SDS011;55961;52.156;20.942;2024-03-17T04:36:00;11.07;;;2.20;;
68923;SDS011;55961;52.156;20.942;2024-03-17T04:38:27;14.35;;;1.30;;
68923;SDS011;55961;52.156;20.942;2024-03-17T04:40:53;8.90;;;1.27;;
68923;SDS011;55961;52.156;20.942;2024-03-17T04:43:33;11.85;;;1.42;;
68923;SDS011;55961;52.156;20.942;2024-03-17T04:46:03;9.30;;;1.50;;
68923;SDS011;55961;52.156;20.942;2024-03-17T04:48:33;5.80;;;1.10;;
68923;SDS011;55961;52.156;20.942;2024-03-17T04:50:59;5.35;;;1.38;;
68923;SDS011;55961;52.156;20.942;2024-03-17T04:53:26;9.83;;;1.50;;
68923;SDS011;55961;52.156;20.942;2024-03-17T04:56:03;11.90;;;1.95;;
68923;SDS011;55961;52.156;20.942;2024-03-17T04:58:33;9.85;;;1.95;;
68923;SDS011;55961;52.156;20.942;2024-03-17T05:01:04;11.23;;;2.40;;
68923;SDS011;55961;52.156;20.942;2024-03-17T05:03:33;9.93;;;1.80;;
68923;SDS011;55961;52.156;20.942;2024-03-17T05:06:00;12.50;;;1.97;;
68923;SDS011;55961;52.156;20.942;2024-03-17T05:08:28;9.68;;;1.88;;
68923;SDS011;55961;52.156;20.942;2024-03-17T05:11:01;14.02;;;2.60;;
68923;SDS011;55961;52.156;20.942;2024-03-17T05:13:30;15.55;;;2.53;;
68923;SDS011;55961;52.156;20.942;2024-03-17T05:16:00;12.35;;;1.92;;
68923;SDS011;55961;52.156;20.942;2024-03-17T05:18:28;14.13;;;2.30;;
68923;SDS011;55961;52.156;20.942;2024-03-17T05:21:02;10.40;;;2.25;;
68923;SDS011;55961;52.156;20.942;2024-03-17T05:23:29;14.23;;;2.38;;
68923;SDS011;55961;52.156;20.942;2024-03-17T05:25:57;11.15;;;2.15;;
68923;SDS011;55961;52.156;20.942;2024-03-17T05:28:23;9.23;;;2.03;;
68923;SDS011;55961;52.156;20.942;2024-03-17T05:30:50;11.30;;;2.30;;
68923;SDS011;55961;52.156;20.942;2024-03-17T05:33:17;11.05;;;2.92;;
68923;SDS011;55961;52.156;20.942;2024-03-17T05:35:48;11.13;;;2.30;;
68923;SDS011;55961;52.156;20.942;2024-03-17T05:38:16;6.72;;;1.65;;
68923;SDS011;55961;52.156;20.942;2024-03-17T05:40:42;9.23;;;2.38;;
68923;SDS011;55961;52.156;20.942;2024-03-17T05:43:08;11.67;;;1.53;;
68923;SDS011;55961;52.156;20.942;2024-03-17T05:45:33;9.23;;;2.28;;
68923;SDS011;55961;52.156;20.942;2024-03-17T05:47:59;8.82;;;1.83;;
68923;SDS011;55961;52.156;20.942;2024-03-17T05:50:29;10.40;;;1.33;;
68923;SDS011;55961;52.156;20.942;2024-03-17T05:52:55;9.70;;;2.60;;
68923;SDS011;55961;52.156;20.942;2024-03-17T05:55:21;8.65;;;1.30;;
68923;SDS011;55961;52.156;20.942;2024-03-17T05:57:47;12.40;;;1.80;;
68923;SDS011;55961;52.156;20.942;2024-03-17T06:00:13;6.75;;;1.85;;
68923;SDS011;55961;52.156;20.942;2024-03-17T06:02:40;9.93;;;1.55;;
68923;SDS011;55961;52.156;20.942;2024-03-17T06:05:06;5.73;;;1.33;;
68923;SDS011;55961;52.156;20.942;2024-03-17T06:07:35;8.88;;;1.27;;
68923;SDS011;55961;52.156;20.942;2024-03-17T06:10:01;11.80;;;2.15;;
68923;SDS011;55961;52.156;20.942;2024-03-17T06:12:27;11.52;;;2.17;;
68923;SDS011;55961;52.156;20.942;2024-03-17T06:14:53;6.03;;;1.27;;
68923;SDS011;55961;52.156;20.942;2024-03-17T06:17:18;14.30;;;2.28;;
68923;SDS011;55961;52.156;20.942;2024-03-17T06:19:44;10.45;;;1.63;;
68923;SDS011;55961;52.156;20.942;2024-03-17T06:22:11;9.80;;;2.27;;
68923;SDS011;55961;52.156;20.942;2024-03-17T06:24:37;7.68;;;1.63;;
68923;SDS011;55961;52.156;20.942;2024-03-17T06:27:03;10.85;;;1.40;;
68923;SDS011;55961;52.156;20.942;2024-03-17T06:29:32;7.13;;;1.10;;
68923;SDS011;55961;52.156;20.942;2024-03-17T06:31:58;11.88;;;1.83;;
68923;SDS011;55961;52.156;20.942;2024-03-17T06:34:25;3.97;;;0.90;;
68923;SDS011;55961;52.156;20.942;2024-03-17T06:36:51;11.35;;;1.42;;
68923;SDS011;55961;52.156;20.942;2024-03-17T06:39:17;8.75;;;1.20;;
68923;SDS011;55961;52.156;20.942;2024-03-17T06:41:45;5.13;;;1.17;;
68923;SDS011;55961;52.156;20.942;2024-03-17T06:44:11;5.93;;;0.77;;
68923;SDS011;55961;52.156;20.942;2024-03-17T06:46:37;6.73;;;0.80;;
68923;SDS011;55961;52.156;20.942;2024-03-17T06:49:03;8.30;;;1.45;;
68923;SDS011;55961;52.156;20.942;2024-03-17T06:51:28;7.10;;;0.80;;
68923;SDS011;55961;52.156;20.942;2024-03-17T06:53:54;8.20;;;1.17;;
68923;SDS011;55961;52.156;20.942;2024-03-17T06:56:20;7.72;;;0.90;;
68923;SDS011;55961;52.156;20.942;2024-03-17T06:58:46;7.83;;;0.93;;
68923;SDS011;55961;52.156;20.942;2024-03-17T07:01:12;9.70;;;1.42;;
68923;SDS011;55961;52.156;20.942;2024-03-17T07:03:38;11.35;;;1.63;;
68923;SDS011;55961;52.156;20.942;2024-03-17T07:06:04;7.37;;;1.20;;
68923;SDS011;55961;52.156;20.942;2024-03-17T07:08:33;5.68;;;0.80;;
68923;SDS011;55961;52.156;20.942;2024-03-17T07:13:32;5.63;;;0.80;;
68923;SDS011;55961;52.156;20.942;2024-03-17T07:16:00;8.68;;;1.10;;
68923;SDS011;55961;52.156;20.942;2024-03-17T07:18:27;9.65;;;0.80;;
68923;SDS011;55961;52.156;20.942;2024-03-17T07:20:57;5.53;;;0.93;;
68923;SDS011;55961;52.156;20.942;2024-03-17T07:23:30;5.47;;;0.80;;
68923;SDS011;55961;52.156;20.942;2024-03-17T07:25:57;7.57;;;0.90;;
68923;SDS011;55961;52.156;20.942;2024-03-17T07:28:24;4.88;;;1.00;;
68923;SDS011;55961;52.156;20.942;2024-03-17T07:30:51;8.00;;;1.20;;
68923;SDS011;55961;52.156;20.942;2024-03-17T07:33:19;7.15;;;1.00;;
68923;SDS011;55961;52.156;20.942;2024-03-17T07:38:18;4.87;;;0.87;;
68923;SDS011;55961;52.156;20.942;2024-03-17T07:40:44;4.60;;;0.70;;
68923;SDS011;55961;52.156;20.942;2024-03-17T07:43:20;8.38;;;1.42;;
68923;SDS011;55961;52.156;20.942;2024-03-17T07:45:46;8.23;;;1.10;;
68923;SDS011;55961;52.156;20.942;2024-03-17T07:48:13;11.47;;;1.27;;
68923;SDS011;55961;52.156;20.942;2024-03-17T07:50:38;4.32;;;0.80;;
68923;SDS011;55961;52.156;20.942;2024-03-17T07:53:04;10.93;;;0.93;;
68923;SDS011;55961;52.156;20.942;2024-03-17T07:55:30;9.82;;;1.23;;
68923;SDS011;55961;52.156;20.942;2024-03-17T07:57:56;6.53;;;0.90;;
68923;SDS011;55961;52.156;20.942;2024-03-17T08:00:22;6.97;;;1.02;;
68923;SDS011;55961;52.156;20.942;2024-03-17T08:02:48;5.13;;;0.93;;
68923;SDS011;55961;52.156;20.942;2024-03-17T08:05:14;8.00;;;1.10;;
68923;SDS011;55961;52.156;20.942;2024-03-17T08:07:40;8.73;;;1.10;;
68923;SDS011;55961;52.156;20.942;2024-03-17T08:10:07;7.68;;;1.30;;
68923;SDS011;55961;52.156;20.942;2024-03-17T08:12:33;10.13;;;1.38;;
68923;SDS011;55961;52.156;20.942;2024-03-17T08:14:59;5.00;;;1.00;;
68923;SDS011;55961;52.156;20.942;2024-03-17T08:17:25;6.05;;;1.10;;
68923;SDS011;55961;52.156;20.942;2024-03-17T08:19:51;5.63;;;0.93;;
68923;SDS011;55961;52.156;20.942;2024-03-17T08:22:17;11.83;;;1.70;;
68923;SDS011;55961;52.156;20.942;2024-03-17T08:24:44;8.07;;;1.33;;
68923;SDS011;55961;52.156;20.942;2024-03-17T08:27:10;4.07;;;1.00;;
68923;SDS011;55961;52.156;20.942;2024-03-17T08:29:36;6.60;;;1.53;;
68923;SDS011;55961;52.156;20.942;2024-03-17T08:32:02;4.80;;;1.13;;
68923;SDS011;55961;52.156;20.942;2024-03-17T08:34:28;11.85;;;1.85;;
68923;SDS011;55961;52.156;20.942;2024-03-17T08:36:54;6.97;;;1.13;;
68923;SDS011;55961;52.156;20.942;2024-03-17T08:39:22;7.05;;;1.25;;
68923;SDS011;55961;52.156;20.942;2024-03-17T08:41:48;12.25;;;1.40;;
68923;SDS011;55961;52.156;20.942;2024-03-17T08:44:14;6.63;;;1.77;;
68923;SDS011;55961;52.156;20.942;2024-03-17T08:46:40;9.70;;;1.48;;
68923;SDS011;55961;52.156;20.942;2024-03-17T08:49:06;8.40;;;1.65;;
68923;SDS011;55961;52.156;20.942;2024-03-17T08:51:32;8.67;;;2.47;;
68923;SDS011;55961;52.156;20.942;2024-03-17T08:53:58;12.43;;;3.83;;
68923;SDS011;55961;52.156;20.942;2024-03-17T08:56:24;7.93;;;1.90;;
68923;SDS011;55961;52.156;20.942;2024-03-17T08:58:51;8.30;;;1.63;;
68923;SDS011;55961;52.156;20.942;2024-03-17T09:01:17;11.73;;;2.53;;
68923;SDS011;55961;52.156;20.942;2024-03-17T09:03:43;11.30;;;1.90;;
68923;SDS011;55961;52.156;20.942;2024-03-17T09:06:15;9.63;;;2.17;;
68923;SDS011;55961;52.156;20.942;2024-03-17T09:08:41;5.77;;;1.00;;
68923;SDS011;55961;52.156;20.942;2024-03-17T09:11:14;6.90;;;1.45;;
68923;SDS011;55961;52.156;20.942;2024-03-17T09:13:40;8.45;;;2.05;;
68923;SDS011;55961;52.156;20.942;2024-03-17T09:16:06;10.55;;;2.17;;
68923;SDS011;55961;52.156;20.942;2024-03-17T09:18:37;7.22;;;1.90;;
68923;SDS011;55961;52.156;20.942;2024-03-17T09:23:34;5.90;;;1.60;;
68923;SDS011;55961;52.156;20.942;2024-03-17T09:26:02;6.47;;;1.67;;
68923;SDS011;55961;52.156;20.942;2024-03-17T09:28:29;9.65;;;1.92;;
68923;SDS011;55961;52.156;20.942;2024-03-17T09:30:56;9.52;;;1.92;;
68923;SDS011;55961;52.156;20.942;2024-03-17T09:33:23;7.03;;;2.47;;
68923;SDS011;55961;52.156;20.942;2024-03-17T09:35:57;5.15;;;1.20;;
68923;SDS011;55961;52.156;20.942;2024-03-17T09:38:33;7.07;;;1.52;;
68923;SDS011;55961;52.156;20.942;2024-03-17T09:41:01;5.82;;;1.45;;
68923;SDS011;55961;52.156;20.942;2024-03-17T09:43:28;9.48;;;1.35;;
68923;SDS011;55961;52.156;20.942;2024-03-17T09:45:58;4.53;;;1.37;;
68923;SDS011;55961;52.156;20.942;2024-03-17T09:48:25;9.15;;;2.20;;
68923;SDS011;55961;52.156;20.942;2024-03-17T09:50:53;5.22;;;1.25;;
68923;SDS011;55961;52.156;20.942;2024-03-17T09:53:25;9.40;;;1.90;;
68923;SDS011;55961;52.156;20.942;2024-03-17T09:55:59;8.33;;;1.70;;
68923;SDS011;55961;52.156;20.942;2024-03-17T09:58:29;7.00;;;1.58;;
68923;SDS011;55961;52.156;20.942;2024-03-17T10:00:55;6.85;;;1.52;;
68923;SDS011;55961;52.156;20.942;2024-03-17T10:06:20;4.40;;;0.80;;
68923;SDS011;55961;52.156;20.942;2024-03-17T10:08:50;3.70;;;1.00;;
68923;SDS011;55961;52.156;20.942;2024-03-17T10:11:18;5.55;;;1.17;;
68923;SDS011;55961;52.156;20.942;2024-03-17T10:13:46;3.13;;;0.80;;
68923;SDS011;55961;52.156;20.942;2024-03-17T10:16:24;5.95;;;1.42;;
68923;SDS011;55961;52.156;20.942;2024-03-17T10:19:05;6.70;;;0.90;;
68923;SDS011;55961;52.156;20.942;2024-03-17T10:21:39;6.28;;;1.75;;
68923;SDS011;55961;52.156;20.942;2024-03-17T10:27:15;4.45;;;0.88;;
68923;SDS011;55961;52.156;20.942;2024-03-17T10:29:27;3.70;;;0.82;;
68923;SDS011;55961;52.156;20.942;2024-03-17T10:32:03;7.90;;;1.50;;
68923;SDS011;55961;52.156;20.942;2024-03-17T10:34:38;4.32;;;0.88;;
68923;SDS011;55961;52.156;20.942;2024-03-17T10:39:39;3.35;;;1.17;;
68923;SDS011;55961;52.156;20.942;2024-03-17T10:42:07;5.40;;;1.30;;
68923;SDS011;55961;52.156;20.942;2024-03-17T10:44:36;4.83;;;1.10;;
68923;SDS011;55961;52.156;20.942;2024-03-17T10:47:07;4.40;;;1.08;;
68923;SDS011;55961;52.156;20.942;2024-03-17T10:49:45;5.45;;;1.05;;
68923;SDS011;55961;52.156;20.942;2024-03-17T10:52:15;5.80;;;1.25;;
68923;SDS011;55961;52.156;20.942;2024-03-17T10:54:49;7.47;;;1.55;;
68923;SDS011;55961;52.156;20.942;2024-03-17T10:57:44;4.60;;;0.70;;
68923;SDS011;55961;52.156;20.942;2024-03-17T11:00:14;5.28;;;1.45;;
68923;SDS011;55961;52.156;20.942;2024-03-17T11:02:43;5.55;;;1.23;;
68923;SDS011;55961;52.156;20.942;2024-03-17T11:05:20;3.58;;;0.82;;
68923;SDS011;55961;52.156;20.942;2024-03-17T11:07:51;3.05;;;0.70;;
68923;SDS011;55961;52.156;20.942;2024-03-17T11:10:24;3.80;;;1.03;;
68923;SDS011;55961;52.156;20.942;2024-03-17T11:13:02;8.48;;;1.13;;
68923;SDS011;55961;52.156;20.942;2024-03-17T11:15:34;4.70;;;0.93;;
68923;SDS011;55961;52.156;20.942;2024-03-17T11:20:40;6.20;;;1.60;;
68923;SDS011;55961;52.156;20.942;2024-03-17T11:23:32;6.03;;;1.23;;
68923;SDS011;55961;52.156;20.942;2024-03-17T11:25:59;8.48;;;1.27;;
68923;SDS011;55961;52.156;20.942;2024-03-17T11:28:44;5.50;;;1.27;;
68923;SDS011;55961;52.156;20.942;2024-03-17T11:34:03;4.25;;;1.13;;
68923;SDS011;55961;52.156;20.942;2024-03-17T11:39:08;4.45;;;0.98;;
68923;SDS011;55961;52.156;20.942;2024-03-17T11:41:49;3.45;;;0.82;;
68923;SDS011;55961;52.156;20.942;2024-03-17T11:49:28;5.13;;;1.27;;
68923;SDS011;55961;52.156;20.942;2024-03-17T11:52:05;4.75;;;0.93;;
68923;SDS011;55961;52.156;20.942;2024-03-17T11:54:37;5.22;;;1.10;;
68923;SDS011;55961;52.156;20.942;2024-03-17T11:57:04;4.35;;;1.05;;
68923;SDS011;55961;52.156;20.942;2024-03-17T11:59:48;6.72;;;1.52;;
68923;SDS011;55961;52.156;20.942;2024-03-17T12:02:21;9.27;;;2.70;;
68923;SDS011;55961;52.156;20.942;2024-03-17T12:04:51;6.13;;;1.75;;
68923;SDS011;55961;52.156;20.942;2024-03-17T12:07:18;7.97;;;2.33;;
68923;SDS011;55961;52.156;20.942;2024-03-17T12:09:46;4.53;;;1.67;;
68923;SDS011;55961;52.156;20.942;2024-03-17T12:12:19;5.40;;;2.00;;
68923;SDS011;55961;52.156;20.942;2024-03-17T12:14:46;4.87;;;1.80;;
68923;SDS011;55961;52.156;20.942;2024-03-17T12:17:14;7.13;;;1.70;;
68923;SDS011;55961;52.156;20.942;2024-03-17T12:19:47;3.10;;;0.90;;
68923;SDS011;55961;52.156;20.942;2024-03-17T12:22:18;4.50;;;1.00;;
68923;SDS011;55961;52.156;20.942;2024-03-17T12:24:48;4.03;;;1.30;;
68923;SDS011;55961;52.156;20.942;2024-03-17T12:27:19;5.40;;;1.77;;
68923;SDS011;55961;52.156;20.942;2024-03-17T12:29:47;4.93;;;1.48;;
68923;SDS011;55961;52.156;20.942;2024-03-17T12:32:18;5.30;;;1.20;;
68923;SDS011;55961;52.156;20.942;2024-03-17T12:34:44;5.28;;;0.98;;
68923;SDS011;55961;52.156;20.942;2024-03-17T12:37:32;4.10;;;1.13;;
68923;SDS011;55961;52.156;20.942;2024-03-17T12:39:59;2.87;;;0.90;;
68923;SDS011;55961;52.156;20.942;2024-03-17T12:42:26;4.95;;;1.02;;
68923;SDS011;55961;52.156;20.942;2024-03-17T12:47:23;3.35;;;0.65;;
68923;SDS011;55961;52.156;20.942;2024-03-17T12:49:51;3.38;;;1.00;;
68923;SDS011;55961;52.156;20.942;2024-03-17T12:55:05;3.15;;;0.80;;
68923;SDS011;55961;52.156;20.942;2024-03-17T12:57:51;5.75;;;1.55;;
68923;SDS011;55961;52.156;20.942;2024-03-17T13:00:37;4.07;;;1.20;;
68923;SDS011;55961;52.156;20.942;2024-03-17T13:03:04;3.45;;;0.85;;
68923;SDS011;55961;52.156;20.942;2024-03-17T13:05:32;5.43;;;0.63;;
68923;SDS011;55961;52.156;20.942;2024-03-17T13:07:58;4.68;;;1.30;;
68923;SDS011;55961;52.156;20.942;2024-03-17T13:10:25;10.07;;;5.85;;
68923;SDS011;55961;52.156;20.942;2024-03-17T13:13:03;4.25;;;0.70;;
68923;SDS011;55961;52.156;20.942;2024-03-17T13:15:32;5.35;;;1.20;;
68923;SDS011;55961;52.156;20.942;2024-03-17T13:18:04;3.70;;;1.10;;
68923;SDS011;55961;52.156;20.942;2024-03-17T13:20:31;8.38;;;1.10;;
68923;SDS011;55961;52.156;20.942;2024-03-17T13:22:57;4.05;;;1.33;;
68923;SDS011;55961;52.156;20.942;2024-03-17T13:25:25;4.38;;;1.00;;
68923;SDS011;55961;52.156;20.942;2024-03-17T13:27:59;5.32;;;1.27;;
68923;SDS011;55961;52.156;20.942;2024-03-17T13:30:26;5.43;;;1.50;;
68923;SDS011;55961;52.156;20.942;2024-03-17T13:32:54;6.30;;;1.40;;
68923;SDS011;55961;52.156;20.942;2024-03-17T13:35:24;3.90;;;1.10;;
68923;SDS011;55961;52.156;20.942;2024-03-17T13:37:52;3.80;;;0.90;;
68923;SDS011;55961;52.156;20.942;2024-03-17T13:40:22;4.53;;;0.98;;
68923;SDS011;55961;52.156;20.942;2024-03-17T13:42:49;4.50;;;1.40;;
68923;SDS011;55961;52.156;20.942;2024-03-17T13:45:16;2.85;;;0.70;;
68923;SDS011;55961;52.156;20.942;2024-03-17T13:47:49;3.90;;;1.13;;
68923;SDS011;55961;52.156;20.942;2024-03-17T13:50:17;5.57;;;0.73;;
68923;SDS011;55961;52.156;20.942;2024-03-17T13:52:43;4.10;;;1.20;;
68923;SDS011;55961;52.156;20.942;2024-03-17T13:55:13;4.00;;;0.80;;
68923;SDS011;55961;52.156;20.942;2024-03-17T13:57:42;4.15;;;0.93;;
68923;SDS011;55961;52.156;20.942;2024-03-17T14:00:10;4.45;;;1.13;;
68923;SDS011;55961;52.156;20.942;2024-03-17T14:02:41;3.08;;;0.82;;
68923;SDS011;55961;52.156;20.942;2024-03-17T14:05:14;3.50;;;0.80;;
68923;SDS011;55961;52.156;20.942;2024-03-17T14:07:43;4.23;;;1.00;;
68923;SDS011;55961;52.156;20.942;2024-03-17T14:10:10;3.05;;;0.70;;
68923;SDS011;55961;52.156;20.942;2024-03-17T14:12:37;23.63;;;9.15;;
68923;SDS011;55961;52.156;20.942;2024-03-17T14:15:07;7.65;;;2.83;;
68923;SDS011;55961;52.156;20.942;2024-03-17T14:17:38;6.63;;;2.42;;
68923;SDS011;55961;52.156;20.942;2024-03-17T14:20:05;13.63;;;5.73;;
68923;SDS011;55961;52.156;20.942;2024-03-17T14:22:34;17.80;;;7.47;;
68923;SDS011;55961;52.156;20.942;2024-03-17T14:25:04;20.45;;;10.60;;
68923;SDS011;55961;52.156;20.942;2024-03-17T14:27:39;16.33;;;6.57;;
68923;SDS011;55961;52.156;20.942;2024-03-17T14:30:05;17.48;;;8.02;;
68923;SDS011;55961;52.156;20.942;2024-03-17T14:32:33;8.63;;;4.33;;
68923;SDS011;55961;52.156;20.942;2024-03-17T14:34:59;8.65;;;4.43;;
68923;SDS011;55961;52.156;20.942;2024-03-17T14:37:25;4.72;;;1.38;;
68923;SDS011;55961;52.156;20.942;2024-03-17T14:39:52;6.38;;;2.42;;
68923;SDS011;55961;52.156;20.942;2024-03-17T14:42:20;5.37;;;1.83;;
68923;SDS011;55961;52.156;20.942;2024-03-17T14:44:46;9.00;;;4.75;;
68923;SDS011;55961;52.156;20.942;2024-03-17T14:47:15;7.13;;;2.92;;
68923;SDS011;55961;52.156;20.942;2024-03-17T14:49:41;7.05;;;3.40;;
68923;SDS011;55961;52.156;20.942;2024-03-17T14:52:09;7.87;;;4.10;;
68923;SDS011;55961;52.156;20.942;2024-03-17T14:54:35;5.05;;;2.17;;
68923;SDS011;55961;52.156;20.942;2024-03-17T14:57:01;7.45;;;3.45;;
68923;SDS011;55961;52.156;20.942;2024-03-17T14:59:27;6.60;;;2.33;;
68923;SDS011;55961;52.156;20.942;2024-03-17T15:01:54;7.23;;;3.33;;
68923;SDS011;55961;52.156;20.942;2024-03-17T15:04:20;8.38;;;2.10;;
68923;SDS011;55961;52.156;20.942;2024-03-17T15:06:46;6.27;;;1.70;;
68923;SDS011;55961;52.156;20.942;2024-03-17T15:09:12;5.97;;;2.75;;
68923;SDS011;55961;52.156;20.942;2024-03-17T15:11:38;6.75;;;2.47;;